ZUCKZHHH

Guest
Details From ZUCK - Jiangbei
To ZHHH - Tianhe
Flight Number -
Tags Generated
Created
Modified
Stats Distance 398 nm / 737 km
Max Altitude 0 ft / 0 m
Waypoints 3
Social Downloads 1
Likes 0
Share VATSIM

Download

Looking for another format? Having issues loading an existing format? Contact us
Advertisement - Login to hide

Notes

Generated

Route

ZUCK DA ZHHH

ID Type Via Altitude Latitude Longitude Leg Dist Tot Dist Heading (true) Name
O ZUCK APT - 0 ft / 0 m 29.70539˚ 106.63686˚ - 0 nm - -
DA NDB - 0 ft / 0 m 30.69833˚ 113.97333˚ 385 nm 385 nm 79° / 83° HEBAOHU NDB
O ZHHH APT - 0 ft / 0 m 30.77228˚ 114.19631˚ 12 nm 397 nm 69° / 69° -

Altitude Profile

Advertisement - Login to hide

Weather


0- 5 10 15 20 25 30 35+ Temperature / ° C

Clouds and Precipitation
Forecast for 2017-12-13 18:00 UTC. Updated 21 minutes ago

Ground ~20,000 ft ~40,000 ft Winds

ZUCK

Details ICAO ZUCK (CKG)
Name JIANGBEI
Region China
Timezone Asia/Chongqing (UTC+8.0)
Stats Elevation 1,365 ft / 416 m (AMSL)
Location 29.719217° 106.641677°
Runways 1
Magnetic Variation 2.487° W

METAR

ZUCK 131500Z 02003MPS 7000 SCT033 09/05 Q1022 NOSIG

Decode

TAF

Not found

Departure Runways

ID Width Length Bearing (true) Bearing (mag) Surface Threshold Offset Overrun Length
02 148 ft / 45 m 10,543 ft / 3,213 m 16.82° 19.31° Concrete 0 ft / 0 m 197 ft / 60 m
20 148 ft / 45 m 10,543 ft / 3,213 m 196.82° 199.31° Concrete 0 ft / 0 m 197 ft / 60 m

ZHHH

Details ICAO ZHHH (WUH)
Name TIANHE
Region China
Timezone Asia/Shanghai (UTC+8.0)
Stats Elevation 113 ft / 34 m (AMSL)
Location 30.783759° 114.208099°
Runways 1
Magnetic Variation 4.385° W

METAR

ZHHH 131500Z 04003MPS 5000 -RA BR SCT010 OVC033 05/03 Q1027 NOSIG

Decode

TAF

Not found

Destination Runways

ID Width Length Bearing (true) Bearing (mag) Surface Threshold Offset Overrun Length
04 148 ft / 45 m 11,170 ft / 3,405 m 41.41° 45.80° Concrete 0 ft / 0 m 197 ft / 60 m
22 148 ft / 45 m 11,170 ft / 3,405 m 221.42° 225.81° Concrete 0 ft / 0 m 197 ft / 60 m

Approach Navaids

Runway Type Ident Frequency Range Bearing (true) Bearing (mag) Slope Elevation
04 Localiser IDA 110.30 MHz 18 nm / 33 km 41.57° 45.96° - 112 ft / 34 m (AMSL)
04 Glidescope IDA 110.30 MHz 10 nm / 19 km 41.41° 45.80° 3.00° 112 ft / 34 m (AMSL)
22 Localiser IHG 109.90 MHz 18 nm / 33 km 221.33° 225.72° - 112 ft / 34 m (AMSL)
22 Glidescope IHG 109.90 MHz 10 nm / 19 km 221.41° 225.80° 3.00° 112 ft / 34 m (AMSL)
22 DME IHG 109.90 MHz 18 nm / 33 km - - - 112 ft / 34 m (AMSL)

Popular Alternatives